Aviation Digital Data Service (ADDS)

Output produced by METARs form (1204 UTC 27 April 2015)
found at http://aviationweather.gov/adds/metars/
 
KILM 271120Z 2712/2812 35006KT P6SM SCT080 BKN250 
     FM271400 31008KT P6SM FEW050 SCT250